createdAt,value
2022-09-13T00:02:18.935Z,5.60
2022-09-13T00:04:46.772Z,5.70
2022-09-13T00:07:14.563Z,5.27
2022-09-13T00:09:42.341Z,4.87
2022-09-13T00:12:10.125Z,5.20
2022-09-13T00:14:37.982Z,4.77
2022-09-13T00:17:05.863Z,5.00
2022-09-13T00:19:35.260Z,9.57
2022-09-13T00:22:03.035Z,10.53
2022-09-13T00:24:30.843Z,7.70
2022-09-13T00:26:58.619Z,5.87
2022-09-13T00:29:26.435Z,5.70
2022-09-13T00:31:54.573Z,5.73
2022-09-13T00:34:22.447Z,6.30
2022-09-13T00:36:51.588Z,6.13
2022-09-13T00:39:19.553Z,6.50
2022-09-13T00:41:47.353Z,5.50
2022-09-13T00:44:53.649Z,6.20
2022-09-13T00:47:24.892Z,5.40
2022-09-13T00:49:57.249Z,4.63
2022-09-13T00:52:29.634Z,5.70
2022-09-13T00:55:02.660Z,5.20
2022-09-13T00:57:33.035Z,6.30
2022-09-13T01:00:09.264Z,5.60
2022-09-13T01:02:37.656Z,5.73
2022-09-13T01:05:06.547Z,5.37
2022-09-13T01:07:36.117Z,6.23
2022-09-13T01:10:07.731Z,5.23
2022-09-13T01:12:44.052Z,5.47
2022-09-13T01:15:12.395Z,5.20
2022-09-13T01:17:41.029Z,5.17
2022-09-13T01:20:11.540Z,5.60
2022-09-13T01:22:57.441Z,5.97
2022-09-13T01:26:08.457Z,5.70
2022-09-13T01:28:56.995Z,5.97
2022-09-13T01:31:33.403Z,6.37
2022-09-13T01:34:15.225Z,7.07
2022-09-13T01:36:57.932Z,6.37
2022-09-13T01:39:39.678Z,5.67
2022-09-13T01:42:17.863Z,5.80
2022-09-13T01:44:58.573Z,5.60
2022-09-13T01:47:31.140Z,5.50
2022-09-13T01:50:10.729Z,6.07
2022-09-13T01:52:51.530Z,5.50
2022-09-13T01:55:28.291Z,6.17
2022-09-13T01:58:04.113Z,5.23
2022-09-13T02:00:38.775Z,6.33
2022-09-13T02:03:13.941Z,6.27
2022-09-13T02:05:48.621Z,6.17
2022-09-13T02:08:21.099Z,5.53
2022-09-13T02:10:54.437Z,5.80
2022-09-13T02:13:27.839Z,6.13
2022-09-13T02:16:00.929Z,5.50
2022-09-13T02:18:36.029Z,6.27
2022-09-13T02:21:13.380Z,5.80
2022-09-13T02:23:45.530Z,7.20
2022-09-13T02:26:16.381Z,6.27
2022-09-13T02:28:49.146Z,7.23
2022-09-13T02:31:21.657Z,6.03
2022-09-13T02:33:55.112Z,6.50
2022-09-13T02:36:26.017Z,6.33
2022-09-13T02:38:59.413Z,5.67
2022-09-13T02:41:36.215Z,5.90
2022-09-13T02:44:10.519Z,6.30
2022-09-13T02:46:56.477Z,5.80
2022-09-13T02:49:32.276Z,5.93
2022-09-13T02:52:10.999Z,6.50
2022-09-13T02:54:43.838Z,5.70
2022-09-13T02:57:19.434Z,5.60
2022-09-13T02:59:47.964Z,6.03
2022-09-13T03:02:19.548Z,5.77
2022-09-13T03:04:50.742Z,6.23
2022-09-13T03:07:18.751Z,5.97
2022-09-13T03:09:51.158Z,6.27
2022-09-13T03:12:34.903Z,5.93
2022-09-13T03:15:15.278Z,6.50
2022-09-13T03:17:53.957Z,6.87
2022-09-13T03:20:32.937Z,6.30
2022-09-13T03:23:15.433Z,6.23
2022-09-13T03:26:01.306Z,6.70
2022-09-13T03:28:39.177Z,6.50
2022-09-13T03:31:16.314Z,6.30
2022-09-13T03:33:54.167Z,6.37
2022-09-13T03:36:28.556Z,7.30
2022-09-13T03:39:05.692Z,6.80
2022-09-13T03:41:37.554Z,6.60
2022-09-13T03:44:11.031Z,6.30
2022-09-13T03:46:42.672Z,6.23
2022-09-13T03:49:13.972Z,6.03
2022-09-13T03:51:45.672Z,5.80
2022-09-13T03:54:19.106Z,6.67
2022-09-13T03:57:11.345Z,6.63
2022-09-13T03:59:42.306Z,6.70
2022-09-13T04:02:12.148Z,7.07
2022-09-13T04:04:41.393Z,6.60
2022-09-13T04:07:12.652Z,6.53
2022-09-13T04:09:40.627Z,6.80
2022-09-13T04:12:10.016Z,7.53
2022-09-13T04:14:38.128Z,6.63
2022-09-13T04:17:06.354Z,6.57
2022-09-13T04:19:34.507Z,7.00
2022-09-13T04:22:02.501Z,6.67
2022-09-13T04:24:32.375Z,7.47
2022-09-13T04:27:00.765Z,7.40
2022-09-13T04:29:28.968Z,6.80
2022-09-13T04:31:56.988Z,6.13
2022-09-13T04:34:25.104Z,5.83
2022-09-13T04:36:54.586Z,6.20
2022-09-13T04:39:23.720Z,6.23
2022-09-13T04:41:57.342Z,6.50
2022-09-13T04:44:25.427Z,6.33
2022-09-13T04:46:53.293Z,5.87
2022-09-13T04:49:21.933Z,5.83
2022-09-13T04:51:49.829Z,5.73
2022-09-13T04:54:18.012Z,5.53
2022-09-13T04:56:47.004Z,6.60
2022-09-13T04:59:16.562Z,7.77
2022-09-13T05:01:44.497Z,9.40
2022-09-13T05:04:12.747Z,9.23
2022-09-13T05:06:40.581Z,8.63
2022-09-13T05:09:08.360Z,7.97
2022-09-13T05:11:36.204Z,8.30
2022-09-13T05:14:05.645Z,10.60
2022-09-13T05:16:35.042Z,13.23
2022-09-13T05:19:03.182Z,11.77
2022-09-13T05:21:31.944Z,17.27
2022-09-13T05:23:59.984Z,13.10
2022-09-13T05:26:31.208Z,10.97
2022-09-13T05:28:59.211Z,10.43
2022-09-13T05:31:30.469Z,8.83
2022-09-13T05:34:01.667Z,10.30
2022-09-13T05:36:29.933Z,13.10
2022-09-13T05:39:25.891Z,13.20
2022-09-13T05:41:46.888Z,12.60
2022-09-13T05:44:14.839Z,11.23
2022-09-13T05:46:43.308Z,10.83
2022-09-13T05:49:14.476Z,10.03
2022-09-13T05:51:42.433Z,8.47
2022-09-13T05:54:12.486Z,7.67
2022-09-13T05:56:40.395Z,9.23
2022-09-13T05:59:08.952Z,9.17
2022-09-13T06:01:36.889Z,8.70
2022-09-13T06:04:04.932Z,8.23
2022-09-13T06:06:35.936Z,7.13
2022-09-13T06:09:06.436Z,8.00
2022-09-13T06:11:34.212Z,8.83
2022-09-13T06:14:02.056Z,9.00
2022-09-13T06:16:29.962Z,8.97
2022-09-13T06:18:59.180Z,9.43
2022-09-13T06:21:29.066Z,8.63
2022-09-13T06:23:58.696Z,12.17
2022-09-13T06:26:28.068Z,11.83
2022-09-13T06:28:57.843Z,10.73
2022-09-13T06:31:27.900Z,8.60
2022-09-13T06:34:00.370Z,7.50
2022-09-13T06:36:28.437Z,7.57
2022-09-13T06:38:56.977Z,8.80
2022-09-13T06:41:27.232Z,8.03
2022-09-13T06:43:57.442Z,7.50
2022-09-13T06:46:26.606Z,7.70
2022-09-13T06:48:55.072Z,8.20
2022-09-13T06:51:24.630Z,6.57
2022-09-13T06:53:53.549Z,7.13
2022-09-13T06:56:23.492Z,7.30
2022-09-13T06:58:56.333Z,7.37
2022-09-13T07:01:26.128Z,6.20
2022-09-13T07:03:55.915Z,7.33
2022-09-13T07:06:25.307Z,7.10
2022-09-13T07:08:53.924Z,6.30
2022-09-13T07:11:23.061Z,6.50
2022-09-13T07:13:53.773Z,6.37
2022-09-13T07:16:24.593Z,6.10
2022-09-13T07:18:53.313Z,6.70
2022-09-13T07:21:22.199Z,6.60
2022-09-13T07:23:50.693Z,6.70
2022-09-13T07:26:18.586Z,6.10
2022-09-13T07:28:48.417Z,6.23
2022-09-13T07:31:20.611Z,5.67
2022-09-13T07:33:49.817Z,6.20
2022-09-13T07:36:17.623Z,6.10
2022-09-13T07:38:45.920Z,5.70
2022-09-13T07:41:15.677Z,6.50
2022-09-13T07:43:43.880Z,5.67
2022-09-13T07:46:13.355Z,6.10
2022-09-13T07:48:44.316Z,6.20
2022-09-13T07:51:13.970Z,6.17
2022-09-13T07:53:43.030Z,6.57
2022-09-13T07:56:12.821Z,7.50
2022-09-13T07:58:43.246Z,9.50
2022-09-13T08:01:14.211Z,8.10
2022-09-13T08:03:43.783Z,7.13
2022-09-13T08:06:11.795Z,6.67
2022-09-13T08:08:39.582Z,7.17
2022-09-13T08:11:08.111Z,34.00
2022-09-13T08:13:35.902Z,13.87
2022-09-13T08:16:05.865Z,6.03
2022-09-13T08:18:33.945Z,7.07
2022-09-13T08:21:03.426Z,6.60
2022-09-13T08:23:31.433Z,6.80
2022-09-13T08:26:02.936Z,6.00
2022-09-13T08:28:31.552Z,5.43
2022-09-13T08:31:05.095Z,5.27
2022-09-13T08:33:33.841Z,5.70
2022-09-13T08:36:04.065Z,5.60
2022-09-13T08:38:32.866Z,6.40
2022-09-13T08:41:05.729Z,5.50
2022-09-13T08:43:49.409Z,4.90
2022-09-13T08:46:24.239Z,4.83
2022-09-13T08:48:56.100Z,4.53
2022-09-13T08:51:33.038Z,4.60
2022-09-13T08:54:03.155Z,4.60
2022-09-13T08:56:39.668Z,4.90
2022-09-13T08:59:33.634Z,4.40
2022-09-13T09:02:15.151Z,4.73
2022-09-13T09:04:48.652Z,4.93
2022-09-13T09:07:21.134Z,4.60
2022-09-13T09:09:53.504Z,5.37
2022-09-13T09:12:32.937Z,5.70
2022-09-13T09:15:06.717Z,6.93
2022-09-13T09:17:47.447Z,7.40
2022-09-13T09:20:25.760Z,7.07
2022-09-13T09:22:56.730Z,8.00
2022-09-13T09:25:27.006Z,7.40
2022-09-13T09:27:55.365Z,6.70
2022-09-13T09:30:23.471Z,7.00
2022-09-13T09:33:06.617Z,7.00
2022-09-13T09:35:49.783Z,6.30
2022-09-13T09:38:37.941Z,6.90
2022-09-13T09:41:11.840Z,7.67
2022-09-13T09:43:45.902Z,6.60
2022-09-13T09:46:17.845Z,6.53
2022-09-13T09:48:53.301Z,6.63
2022-09-13T09:51:24.854Z,6.60
2022-09-13T09:54:02.021Z,5.63
2022-09-13T09:56:33.746Z,6.20
2022-09-13T09:59:02.692Z,6.00
2022-09-13T10:01:33.330Z,6.30
2022-09-13T10:04:09.397Z,6.17
2022-09-13T10:06:39.595Z,6.00
2022-09-13T10:09:20.677Z,6.40
2022-09-13T10:11:51.009Z,8.80
2022-09-13T10:14:31.434Z,8.67
2022-09-13T10:17:05.743Z,7.90
2022-09-13T10:19:34.224Z,6.53
2022-09-13T10:22:04.103Z,8.90
2022-09-13T10:24:33.821Z,6.50
2022-09-13T10:27:04.234Z,6.03
2022-09-13T10:29:33.761Z,6.90
2022-09-13T10:32:09.682Z,6.80
2022-09-13T10:34:38.339Z,6.87
2022-09-13T10:37:14.741Z,7.10
2022-09-13T10:39:56.097Z,5.77
2022-09-13T10:42:26.497Z,5.90
2022-09-13T10:44:58.889Z,5.40
2022-09-13T10:47:33.515Z,5.30
2022-09-13T10:50:19.904Z,4.70
2022-09-13T10:52:49.004Z,4.10
2022-09-13T10:55:33.529Z,4.33
2022-09-13T10:58:20.949Z,4.30
2022-09-13T11:01:15.133Z,3.93
2022-09-13T11:04:05.408Z,3.50
2022-09-13T11:06:40.787Z,5.03
2022-09-13T11:09:14.252Z,9.70
2022-09-13T11:11:51.729Z,3.53
2022-09-13T11:14:36.744Z,3.53
2022-09-13T11:17:18.366Z,3.40
2022-09-13T11:20:07.100Z,3.70
2022-09-13T11:22:56.975Z,3.70
2022-09-13T11:25:42.482Z,3.60
2022-09-13T11:28:21.972Z,3.73
2022-09-13T11:31:06.112Z,3.30
2022-09-13T11:33:46.933Z,3.90
2022-09-13T11:36:43.440Z,4.40
2022-09-13T11:39:25.094Z,3.77
2022-09-13T11:42:03.153Z,5.00
2022-09-13T11:44:52.506Z,4.20
2022-09-13T11:47:31.494Z,3.73
2022-09-13T11:50:16.495Z,3.50
2022-09-13T11:52:54.888Z,3.20
2022-09-13T11:55:27.516Z,3.50
2022-09-13T11:58:00.128Z,2.87
2022-09-13T12:00:33.298Z,4.17
2022-09-13T12:03:08.933Z,3.20
2022-09-13T12:05:41.665Z,3.50
2022-09-13T12:08:17.121Z,3.90
2022-09-13T12:10:49.826Z,3.30
2022-09-13T12:13:22.529Z,3.60
2022-09-13T12:15:55.820Z,3.40
2022-09-13T12:18:28.926Z,3.23
2022-09-13T12:21:00.587Z,3.87
2022-09-13T12:23:33.033Z,3.50
2022-09-13T12:26:04.597Z,3.20
2022-09-13T12:28:37.864Z,3.80
2022-09-13T12:31:12.432Z,4.13
2022-09-13T12:33:41.665Z,3.50
2022-09-13T12:36:43.558Z,3.93
2022-09-13T12:39:47.902Z,4.03
2022-09-13T12:42:48.258Z,3.20
2022-09-13T12:45:30.125Z,3.90
2022-09-13T12:48:16.121Z,3.27
2022-09-13T12:51:00.004Z,3.40
2022-09-13T12:53:47.402Z,3.67
2022-09-13T12:56:34.113Z,3.33
2022-09-13T12:59:21.072Z,3.37
2022-09-13T13:01:52.208Z,3.63
2022-09-13T13:04:24.931Z,3.73
2022-09-13T13:06:56.976Z,3.40
2022-09-13T13:09:32.138Z,3.40
2022-09-13T13:12:00.422Z,3.40
2022-09-13T13:14:46.475Z,3.80
2022-09-13T13:17:47.273Z,3.20
2022-09-13T13:20:46.204Z,3.13
2022-09-13T13:23:20.594Z,3.10
2022-09-13T13:26:00.355Z,3.27
2022-09-13T13:29:04.944Z,3.27
2022-09-13T13:31:40.690Z,3.60
2022-09-13T13:34:31.080Z,3.27
2022-09-13T13:37:04.162Z,2.97
2022-09-13T13:39:40.903Z,3.13
2022-09-13T13:42:15.144Z,3.77
2022-09-13T13:45:31.356Z,3.50
2022-09-13T13:48:35.329Z,3.70
2022-09-13T13:51:33.402Z,3.90
2022-09-13T13:54:25.287Z,3.40
2022-09-13T13:56:53.119Z,3.40
2022-09-13T13:59:26.801Z,3.20
2022-09-13T14:01:59.406Z,4.10
2022-09-13T14:04:48.602Z,3.30
2022-09-13T14:07:31.200Z,3.20
2022-09-13T14:10:07.053Z,2.90
2022-09-13T14:12:50.767Z,3.97
2022-09-13T14:15:35.228Z,3.53
2022-09-13T14:18:32.274Z,3.37
2022-09-13T14:21:02.324Z,3.73
2022-09-13T14:23:30.903Z,3.67
2022-09-13T14:26:01.969Z,3.70
2022-09-13T14:28:30.165Z,3.00
2022-09-13T14:30:59.636Z,2.97
2022-09-13T14:33:32.011Z,3.10
2022-09-13T14:36:03.536Z,3.97
2022-09-13T14:38:35.467Z,3.20
2022-09-13T14:41:14.527Z,3.00
2022-09-13T14:43:43.088Z,3.30
2022-09-13T14:46:16.589Z,3.60
2022-09-13T14:48:51.510Z,9.30
2022-09-13T14:51:24.293Z,3.27
2022-09-13T14:53:55.061Z,3.40
2022-09-13T14:56:33.543Z,3.00
2022-09-13T14:59:06.534Z,3.23
2022-09-13T15:01:36.507Z,2.83
2022-09-13T15:04:06.785Z,3.13
2022-09-13T15:06:38.187Z,3.07
2022-09-13T15:09:18.745Z,3.10
2022-09-13T15:11:59.361Z,3.37
2022-09-13T15:14:31.059Z,2.97
2022-09-13T15:17:08.909Z,4.10
2022-09-13T15:19:39.510Z,10.20
2022-09-13T15:22:17.061Z,4.57
2022-09-13T15:24:48.380Z,4.00
2022-09-13T15:27:28.994Z,3.47
2022-09-13T15:29:58.706Z,3.33
2022-09-13T15:32:34.028Z,3.20
2022-09-13T15:35:03.099Z,3.30
2022-09-13T15:37:34.693Z,3.23
2022-09-13T15:40:30.698Z,3.00
2022-09-13T15:43:00.491Z,3.37
2022-09-13T15:45:28.313Z,3.43
2022-09-13T15:47:56.260Z,3.60
2022-09-13T15:50:27.539Z,3.40
2022-09-13T15:52:56.112Z,3.50
2022-09-13T15:55:25.088Z,3.50
2022-09-13T15:57:52.912Z,4.10
2022-09-13T16:00:24.402Z,3.50
2022-09-13T16:02:52.687Z,4.20
2022-09-13T16:05:21.245Z,3.40
2022-09-13T16:07:49.388Z,3.60
2022-09-13T16:10:19.438Z,3.53
2022-09-13T16:12:47.277Z,4.13
2022-09-13T16:15:16.934Z,3.97
2022-09-13T16:17:46.101Z,4.43
2022-09-13T16:20:16.950Z,4.30
2022-09-13T16:22:44.945Z,3.80
2022-09-13T16:25:14.072Z,4.10
2022-09-13T16:27:42.749Z,4.07
2022-09-13T16:30:13.724Z,3.60
2022-09-13T16:32:42.292Z,4.10
2022-09-13T16:35:12.646Z,3.67
2022-09-13T16:37:41.887Z,3.73
2022-09-13T16:40:11.020Z,4.40
2022-09-13T16:42:39.158Z,4.10
2022-09-13T16:45:08.076Z,3.63
2022-09-13T16:47:35.916Z,4.10
2022-09-13T16:50:04.073Z,3.60
2022-09-13T16:52:33.764Z,3.50
2022-09-13T16:55:01.548Z,4.03
2022-09-13T16:57:29.936Z,4.13
2022-09-13T16:59:58.855Z,3.80
2022-09-13T17:02:27.514Z,3.70
2022-09-13T17:04:55.619Z,4.00
2022-09-13T17:07:23.439Z,6.90
2022-09-13T17:09:52.668Z,7.10
2022-09-13T17:12:20.829Z,6.47
2022-09-13T17:14:50.574Z,5.23
2022-09-13T17:17:18.825Z,4.53
2022-09-13T17:19:47.581Z,5.07
2022-09-13T17:22:16.429Z,5.63
2022-09-13T17:24:44.679Z,5.40
2022-09-13T17:27:13.827Z,4.67
2022-09-13T17:29:41.709Z,17.70
2022-09-13T17:32:09.741Z,29.77
2022-09-13T17:34:37.543Z,36.90
2022-09-13T17:37:06.632Z,24.87
2022-09-13T17:39:34.547Z,12.93
2022-09-13T17:42:02.555Z,8.73
2022-09-13T17:44:31.765Z,7.20
2022-09-13T17:46:59.587Z,19.67
2022-09-13T17:49:27.545Z,14.10
2022-09-13T17:51:55.738Z,17.30
2022-09-13T17:54:23.837Z,13.63
2022-09-13T17:56:51.935Z,9.90
2022-09-13T17:59:21.647Z,8.60
2022-09-13T18:01:52.638Z,7.30
2022-09-13T18:04:23.054Z,9.40
2022-09-13T18:06:52.262Z,7.70
2022-09-13T18:09:20.892Z,8.80
2022-09-13T18:11:49.149Z,8.80
2022-09-13T18:14:18.611Z,7.67
2022-09-13T18:16:49.261Z,8.33
2022-09-13T18:19:26.295Z,8.03
2022-09-13T18:22:06.677Z,7.93
2022-09-13T18:24:34.686Z,7.93
2022-09-13T18:27:02.855Z,7.03
2022-09-13T18:29:32.395Z,7.33
2022-09-13T18:32:00.523Z,6.30
2022-09-13T18:34:29.897Z,6.60
2022-09-13T18:36:57.808Z,7.60
2022-09-13T18:39:25.671Z,7.00
2022-09-13T18:41:53.465Z,6.13
2022-09-13T18:44:21.480Z,7.30
2022-09-13T18:46:50.715Z,5.73
2022-09-13T18:49:19.690Z,6.07
2022-09-13T18:51:49.449Z,5.70
2022-09-13T18:54:19.293Z,6.50
2022-09-13T18:56:47.959Z,5.83
2022-09-13T18:59:15.972Z,6.30
2022-09-13T19:01:45.286Z,5.43
2022-09-13T19:04:15.417Z,6.03
2022-09-13T19:06:45.780Z,8.10
2022-09-13T19:09:15.732Z,6.80
2022-09-13T19:11:47.625Z,7.37
2022-09-13T19:14:17.561Z,6.10
2022-09-13T19:16:45.409Z,5.87
2022-09-13T19:19:13.297Z,6.13
2022-09-13T19:21:42.113Z,5.57
2022-09-13T19:24:17.823Z,9.27
2022-09-13T19:26:50.660Z,7.90
2022-09-13T19:29:21.014Z,6.13
2022-09-13T19:31:50.686Z,6.27
2022-09-13T19:34:19.742Z,6.73
2022-09-13T19:36:50.449Z,6.63
2022-09-13T19:39:18.373Z,6.57
2022-09-13T19:41:47.561Z,7.00
2022-09-13T19:44:15.868Z,6.67
2022-09-13T19:46:43.943Z,6.37
2022-09-13T19:49:14.089Z,6.23
2022-09-13T19:51:45.546Z,6.20
2022-09-13T19:54:17.004Z,6.07
2022-09-13T19:56:45.580Z,6.03
2022-09-13T19:59:17.201Z,6.47
2022-09-13T20:01:47.050Z,5.87
2022-09-13T20:04:17.312Z,5.73
2022-09-13T20:06:46.876Z,5.83
2022-09-13T20:09:17.275Z,20.03
2022-09-13T20:11:45.821Z,27.90
2022-09-13T20:14:19.096Z,28.20
2022-09-13T20:16:47.776Z,13.70
2022-09-13T20:19:39.435Z,9.27
2022-09-13T20:22:06.788Z,6.77
2022-09-13T20:24:34.623Z,5.93
2022-09-13T20:27:02.468Z,6.70
2022-09-13T20:29:32.426Z,5.63
2022-09-13T20:32:02.203Z,6.20
2022-09-13T20:34:31.067Z,6.60
2022-09-13T20:36:59.041Z,6.53
2022-09-13T20:39:27.185Z,6.63
2022-09-13T20:41:55.052Z,6.10
2022-09-13T20:44:23.388Z,7.43
2022-09-13T20:46:52.583Z,7.67
2022-09-13T20:49:21.389Z,6.77
2022-09-13T20:51:49.950Z,6.60
2022-09-13T20:54:20.400Z,6.20
2022-09-13T20:56:48.439Z,6.40
2022-09-13T20:59:16.392Z,6.33
2022-09-13T21:01:45.065Z,6.43
2022-09-13T21:04:14.363Z,5.70
2022-09-13T21:07:03.556Z,5.87
2022-09-13T21:09:31.704Z,6.43
2022-09-13T21:12:01.257Z,6.23
2022-09-13T21:14:32.198Z,5.40
2022-09-13T21:17:00.430Z,6.70
2022-09-13T21:19:29.796Z,5.97
2022-09-13T21:21:57.737Z,7.30
2022-09-13T21:24:25.657Z,6.50
2022-09-13T21:26:53.715Z,6.33
2022-09-13T21:29:21.698Z,6.10
2022-09-13T21:31:49.773Z,5.90
2022-09-13T21:34:19.736Z,5.40
2022-09-13T21:36:50.625Z,5.40
2022-09-13T21:39:19.176Z,5.80
2022-09-13T21:41:47.597Z,5.50
2022-09-13T21:44:16.049Z,6.10
2022-09-13T21:46:46.440Z,6.40
2022-09-13T21:49:15.788Z,6.03
2022-09-13T21:51:45.075Z,6.47
2022-09-13T21:54:16.190Z,6.93
2022-09-13T21:56:45.934Z,6.80
2022-09-13T21:59:15.582Z,6.87
2022-09-13T22:01:46.733Z,7.63
2022-09-13T22:04:17.563Z,7.10
2022-09-13T22:06:46.464Z,6.77
2022-09-13T22:09:16.475Z,7.77
2022-09-13T22:11:46.154Z,7.10
2022-09-13T22:14:15.686Z,8.00
2022-09-13T22:16:46.420Z,7.07
2022-09-13T22:19:16.820Z,6.70
2022-09-13T22:21:47.195Z,6.80
2022-09-13T22:24:18.367Z,7.90
2022-09-13T22:26:47.710Z,7.27
2022-09-13T22:29:16.213Z,6.97
2022-09-13T22:31:45.616Z,7.27
2022-09-13T22:34:15.881Z,7.93
2022-09-13T22:36:43.953Z,7.07
2022-09-13T22:39:12.844Z,6.90
2022-09-13T22:41:42.419Z,7.50
2022-09-13T22:44:10.712Z,6.70
2022-09-13T22:46:40.453Z,7.13
2022-09-13T22:49:09.149Z,6.97
2022-09-13T22:51:37.122Z,7.07
2022-09-13T22:54:07.334Z,6.53
2022-09-13T22:56:37.258Z,7.07
2022-09-13T22:59:08.457Z,7.47
2022-09-13T23:01:37.377Z,7.37
2022-09-13T23:04:06.782Z,6.90
2022-09-13T23:06:36.026Z,6.50
2022-09-13T23:09:07.225Z,5.90
2022-09-13T23:11:37.184Z,7.00
2022-09-13T23:14:10.053Z,6.67
2022-09-13T23:16:40.330Z,6.77
2022-09-13T23:19:08.621Z,7.40
2022-09-13T23:21:38.060Z,7.37
2022-09-13T23:24:07.648Z,7.30
2022-09-13T23:26:35.995Z,6.77
2022-09-13T23:29:06.606Z,6.67
2022-09-13T23:31:38.434Z,7.20
2022-09-13T23:34:08.456Z,7.20
2022-09-13T23:36:38.916Z,7.33
2022-09-13T23:39:08.986Z,6.83
2022-09-13T23:41:37.057Z,6.90
2022-09-13T23:44:06.774Z,6.70
2022-09-13T23:46:35.198Z,6.50
2022-09-13T23:49:03.292Z,7.27
2022-09-13T23:51:31.642Z,6.87
2022-09-13T23:54:00.975Z,7.43
2022-09-13T23:56:30.898Z,7.70
2022-09-13T23:59:00.930Z,6.60
